Flight Track Log - Related Links

Times and Time Zones

All times are in EDT time to prevent confusion due to time zone crossing. See the SWA1199 flight status page for this flight to view local times or setup timezone preferences in your user account.

Time Position Orientation Groundspeed Altitude Reporting Facility
EDT Latitude Longitude Course Direction KTS MPH feet Rate Location/Type
Sat 05:52:17 PM 42.9167 -71.4167 200° South 157 181 1,000  Level KA90
Sat 05:52:59 PM 42.8833 -71.4333 200° South 183 211 2,500 2,595 Climbing KA90
Sat 05:54:08 PM 42.8378 -71.4208 169° South 225 259 5,800 3,256 Climbing Boston Center
Sat 05:55:08 PM 42.8850 -71.3436 50° Northeast 169 194 9,500 2,850 Climbing Boston Center
Sat 05:56:08 PM 42.9364 -71.2744 45° Northeast 196 226 11,500 2,350 Climbing Boston Center
Sat 05:57:08 PM 43.0061 -71.1853 43° Northeast 297 342 14,200 2,800 Climbing Boston Center
Sat 05:58:08 PM 43.0675 -71.0703 54° Northeast 339 390 17,100 1,500 Climbing Boston Center
Sat 05:59:08 PM 43.0264 -70.9547 116° Southeast 308 354 17,200 1,100 Climbing Boston Center
Sat 06:00:08 PM 42.9197 -70.9261 169° South 297 342 19,300 2,300 Climbing Boston Center
Sat 06:01:08 PM 42.7994 -70.9714 195° South 356 410 21,800 2,091 Climbing Boston Center
Sat 06:02:20 PM 42.6792 -71.0308 200° South 407 468 23,900 1,409 Climbing Boston Center
Sat 06:03:20 PM 42.5492 -71.1408 212° Southwest 451 519 24,900 1,750 Climbing Boston Center
Sat 06:04:20 PM 42.4906 -71.3025 244° Southwest 445 512 27,400 1,850 Climbing Boston Center
Sat 06:05:20 PM 42.4275 -71.4669 243° Southwest 469 540 28,600 1,500 Climbing Boston Center
Sat 06:06:20 PM 42.3581 -71.6336 241° Southwest 499 574 30,400 2,350 Climbing Boston Center
Sat 06:07:20 PM 42.2964 -71.7917 242° Southwest 499 574 33,300 2,450 Climbing Boston Center
Sat 06:08:20 PM 42.2347 -71.9494 242° Southwest 494 568 35,300 2,000 Climbing Boston Center
Sat 06:09:20 PM 42.1747 -72.0983 242° Southwest 476 548 37,300 1,350 Climbing Boston Center
Sat 06:10:20 PM 42.1147 -72.2525 242° Southwest 470 541 38,000 350 Climbing Boston Center
Sat 06:11:20 PM 42.0544 -72.4036 242° Southwest 465 535 38,000  Level Boston Center
Sat 06:12:20 PM 41.9919 -72.5575 241° Southwest 465 535 38,000  Level Boston Center
Sat 06:13:20 PM 41.9208 -72.7164 239° Southwest 460 529 38,000  Level Boston Center
Sat 06:14:20 PM 41.8308 -72.8442 227° Southwest 460 529 38,000  Level Boston Center
Sat 06:15:20 PM 41.7300 -72.9769 225° Southwest 482 555 38,000  Level Boston Center
Sat 06:16:20 PM 41.6378 -73.1067 226° Southwest 493 567 38,000  Level Boston Center
Sat 06:18:42 PM 41.4242 -73.3914 225° Southwest 453 521 38,000  Level New York Center
Sat 06:19:41 PM 41.3317 -73.5175 226° Southwest 467 537 38,000  Level New York Center
Sat 06:20:41 PM 41.2453 -73.6436 228° Southwest 467 537 38,000  Level New York Center
Sat 06:21:41 PM 41.1672 -73.7753 232° Southwest 467 537 38,000  Level New York Center
Sat 06:22:41 PM 41.0908 -73.9097 233° Southwest 467 537 38,000  Level New York Center
Sat 06:23:43 PM 41.0122 -74.0433 232° Southwest 462 532 38,000  Level New York Center
Sat 06:24:43 PM 40.9333 -74.1742 231° Southwest 462 532 38,000  Level New York Center
Sat 06:25:41 PM 40.8592 -74.2883 229° Southwest 462 532 38,000  Level New York Center
Sat 06:26:41 PM 40.7803 -74.4186 231° Southwest 462 532 38,000  Level New York Center
Sat 06:27:41 PM 40.7014 -74.5458 231° Southwest 457 526 38,000  Level New York Center
Sat 06:28:42 PM 40.6219 -74.6753 231° Southwest 457 526 38,000  Level New York Center
Sat 06:29:43 PM 40.5406 -74.8044 230° Southwest 457 526 38,000  Level New York Center
Sat 06:30:41 PM 40.4550 -74.9278 228° Southwest 462 532 38,000  Level New York Center
Sat 06:31:42 PM 40.3675 -75.0478 226° Southwest 462 532 38,000  Level New York Center
Sat 06:32:42 PM 40.2794 -75.1703 227° Southwest 462 532 38,000  Level New York Center
Sat 06:33:41 PM 40.1956 -75.2925 228° Southwest 462 532 38,000 200 Level New York Center
Sat 06:34:42 PM 40.1078 -75.4117 226° Southwest 462 532 38,400 595 Climbing New York Center
Sat 06:35:42 PM 40.0217 -75.5333 227° Southwest 462 532 39,200 793 Climbing New York Center
Sat 06:36:43 PM 39.9264 -75.6678 227° Southwest 462 532 40,000 397 Climbing New York Center
Sat 06:37:43 PM 39.8461 -75.7947 231° Southwest 457 526 40,000  Level New York Center
Sat 06:38:42 PM 39.7656 -75.9211 230° Southwest 457 526 40,000  Level New York Center
Sat 06:40:26 PM 39.6333 -76.1250 230° Southwest 461 531 40,000  Level Washington Center
Sat 06:41:26 PM 39.5556 -76.2483 231° Southwest 461 531 40,000  Level Washington Center
Sat 06:42:24 PM 39.4756 -76.3711 230° Southwest 461 531 40,000  Level Washington Center
Sat 06:43:25 PM 39.3956 -76.4992 231° Southwest 456 525 40,000  Level Washington Center
Sat 06:44:26 PM 39.3050 -76.6322 229° Southwest 456 525 40,000  Level Washington Center
Sat 06:45:25 PM 39.2244 -76.7569 230° Southwest 450 518 40,000  Level Washington Center
Sat 06:46:25 PM 39.1483 -76.8789 231° Southwest 450 518 40,000  Level Washington Center
Sat 06:47:26 PM 39.0697 -77.0006 230° Southwest 450 518 40,000  Level Washington Center
Sat 06:48:27 PM 38.9808 -77.1083 223° Southwest 450 518 40,000  Level Washington Center
Sat 06:49:25 PM 38.8881 -77.2078 220° Southwest 445 512 40,000  Level Washington Center
Sat 06:50:25 PM 38.7928 -77.3122 221° Southwest 445 512 40,000  Level Washington Center
Sat 06:51:25 PM 38.7164 -77.3931 220° Southwest 445 512 40,000  Level Washington Center
Sat 06:52:26 PM 38.6125 -77.5072 221° Southwest 445 512 40,000  Level Washington Center
Sat 06:53:27 PM 38.5211 -77.6083 221° Southwest 440 506 40,000  Level Washington Center
Sat 06:54:24 PM 38.4300 -77.7067 220° Southwest 440 506 40,000  Level Washington Center
Sat 06:55:25 PM 38.3406 -77.8047 221° Southwest 434 499 40,000  Level Washington Center
Sat 06:56:25 PM 38.2511 -77.9053 221° Southwest 434 499 40,000  Level Washington Center
Sat 06:57:27 PM 38.1575 -78.0000 219° Southwest 434 499 40,000  Level Washington Center
Sat 06:58:26 PM 38.0700 -78.0975 221° Southwest 434 499 40,000  Level Washington Center
Sat 06:59:26 PM 37.9803 -78.1919 220° Southwest 427 491 40,000  Level Washington Center
Sat 07:00:26 PM 37.8867 -78.2781 216° Southwest 427 491 40,000  Level Washington Center
Sat 07:01:25 PM 37.7886 -78.3694 216° Southwest 432 497 40,000  Level Washington Center
Sat 07:02:26 PM 37.6842 -78.4706 217° Southwest 432 497 40,000  Level Washington Center
Sat 07:03:26 PM 37.5839 -78.5611 216° Southwest 437 503 40,000  Level Washington Center
Sat 07:04:27 PM 37.4875 -78.6567 218° Southwest 444 511 40,000  Level Washington Center
Sat 07:05:25 PM 37.3872 -78.7467 216° Southwest 444 511 40,000  Level Washington Center
Sat 07:06:26 PM 37.2886 -78.8392 217° Southwest 444 511 40,000  Level Washington Center
Sat 07:07:26 PM 37.1989 -78.9214 216° Southwest 444 511 40,000  Level Washington Center
Sat 07:08:27 PM 37.1003 -79.0136 217° Southwest 444 511 40,000  Level Washington Center
Sat 07:09:27 PM 36.9997 -79.1053 216° Southwest 444 511 40,000  Level Washington Center
Sat 07:10:25 PM 36.9008 -79.1969 217° Southwest 444 511 40,000  Level Washington Center
Sat 07:11:26 PM 36.8044 -79.2858 216° Southwest 444 511 40,000  Level Washington Center
Sat 07:12:27 PM 36.6989 -79.3844 217° Southwest 444 511 40,000  Level Washington Center
Sat 07:13:58 PM 36.5506 -79.5164 216° Southwest 427 491 40,000  Level Atlanta Center
Sat 07:14:58 PM 36.4536 -79.6019 215° Southwest 427 491 40,000  Level Atlanta Center
Sat 07:15:58 PM 36.3567 -79.6897 216° Southwest 427 491 40,000  Level Atlanta Center
Sat 07:16:58 PM 36.2617 -79.7772 217° Southwest 432 497 40,000  Level Atlanta Center
Sat 07:17:58 PM 36.1644 -79.8647 216° Southwest 432 497 40,000  Level Atlanta Center
Sat 07:18:58 PM 36.0775 -79.9436 216° Southwest 432 497 40,000  Level Atlanta Center
Sat 07:19:58 PM 35.9647 -79.9981 201° Southwest 438 504 40,000  Level Atlanta Center
Sat 07:20:58 PM 35.8472 -80.0397 196° South 435 501 40,000  Level Atlanta Center
Sat 07:21:58 PM 35.7317 -80.0786 195° South 435 501 40,000  Level Atlanta Center
Sat 07:22:58 PM 35.6139 -80.1175 195° South 435 501 40,000  Level Atlanta Center
Sat 07:23:58 PM 35.4961 -80.1564 195° South 435 501 40,000  Level Atlanta Center
Sat 07:24:58 PM 35.3764 -80.1950 195° South 440 506 40,000  Level Atlanta Center
Sat 07:25:58 PM 35.2464 -80.2367 195° South 445 512 40,000  Level Atlanta Center
Sat 07:28:19 PM 34.9703 -80.3289 195° South 440 506 40,000  Level Jacksonville Center
Sat 07:29:19 PM 34.8500 -80.3656 194° South 434 499 40,000  Level Jacksonville Center
Sat 07:30:19 PM 34.7358 -80.3992 194° South 431 496 40,000  Level Jacksonville Center
Sat 07:31:19 PM 34.6200 -80.4403 196° South 431 496 40,000  Level Jacksonville Center
Sat 07:32:19 PM 34.5039 -80.4764 194° South 431 496 40,000  Level Jacksonville Center
Sat 07:33:19 PM 34.3878 -80.5097 193° South 431 496 40,000  Level Jacksonville Center
Sat 07:34:19 PM 34.2717 -80.5506 196° South 431 496 40,000  Level Jacksonville Center
Sat 07:35:19 PM 34.1594 -80.5839 194° South 431 496 40,000  Level Jacksonville Center
Sat 07:36:19 PM 34.0433 -80.6219 195° South 431 496 40,000  Level Jacksonville Center
Sat 07:37:19 PM 33.9292 -80.6575 194° South 431 496 40,000  Level Jacksonville Center
Sat 07:38:19 PM 33.8153 -80.6928 194° South 431 496 40,000  Level Jacksonville Center
Sat 07:39:19 PM 33.7008 -80.7256 193° South 431 496 40,000  Level Jacksonville Center
Sat 07:40:19 PM 33.5847 -80.7633 195° South 431 496 40,000  Level Jacksonville Center
Sat 07:41:19 PM 33.4686 -80.8011 195° South 431 496 40,000  Level Jacksonville Center
Sat 07:42:19 PM 33.3522 -80.8361 194° South 431 496 40,000  Level Jacksonville Center
Sat 07:43:19 PM 33.2400 -80.8708 195° South 431 496 40,000  Level Jacksonville Center
Sat 07:44:19 PM 33.1236 -80.9058 194° South 431 496 40,000  Level Jacksonville Center
Sat 07:45:19 PM 33.0117 -80.9406 195° South 431 496 40,000  Level Jacksonville Center
Sat 07:46:19 PM 32.8972 -80.9753 194° South 431 496 40,000  Level Jacksonville Center
Sat 07:47:19 PM 32.7831 -81.0097 194° South 431 496 40,000  Level Jacksonville Center
Sat 07:48:19 PM 32.6686 -81.0442 194° South 422 486 40,000  Level Jacksonville Center
Sat 07:49:19 PM 32.5564 -81.0786 195° South 422 486 40,000  Level Jacksonville Center
Sat 07:50:19 PM 32.4422 -81.1153 195° South 422 486 40,000  Level Jacksonville Center
Sat 07:51:19 PM 32.3236 -81.1469 193° South 434 499 40,000  Level Jacksonville Center
Sat 07:52:19 PM 32.2072 -81.1789 193° South 429 494 40,000  Level Jacksonville Center
Sat 07:53:19 PM 32.1000 -81.1367 162° South 440 506 40,000  Level Jacksonville Center
Sat 07:54:19 PM 31.9986 -81.0431 142° Southeast 435 501 40,000  Level Jacksonville Center
Sat 07:55:19 PM 31.8864 -80.9450 143° Southeast 464 534 40,000  Level Jacksonville Center
Sat 07:56:19 PM 31.7847 -80.8542 143° Southeast 465 535 40,000  Level Jacksonville Center
Sat 07:57:19 PM 31.6958 -80.7731 142° Southeast 460 529 40,000  Level Jacksonville Center
Sat 07:58:19 PM 31.6286 -80.6283 119° Southeast 455 524 40,000  Level Jacksonville Center
Sat 07:59:19 PM 31.5803 -80.5050 115° Southeast 460 529 40,000  Level Jacksonville Center
Sat 08:00:19 PM 31.5214 -80.3653 116° Southeast 460 529 40,000  Level Jacksonville Center
Sat 08:01:19 PM 31.4142 -80.3292 164° South 403 464 40,000  Level Jacksonville Center
Sat 08:02:19 PM 31.3014 -80.3347 182° South 374 430 40,000 -400 Level Jacksonville Center
Sat 08:03:19 PM 31.1847 -80.3381 181° South 397 457 39,200 -850 Descending Jacksonville Center
Sat 08:04:19 PM 31.0700 -80.3508 185° South 407 468 38,300 -950 Descending Jacksonville Center
Sat 08:05:19 PM 30.9486 -80.3347 174° South 424 488 37,300 -1,000 Descending Jacksonville Center
Sat 08:06:19 PM 30.8267 -80.2872 162° South 442 509 36,300 -950 Descending Jacksonville Center
Sat 08:07:19 PM 30.7044 -80.2397 162° South 448 516 35,400 -950 Descending Jacksonville Center
Sat 08:08:19 PM 30.5828 -80.2044 166° South 461 531 34,400 -1,000 Descending Jacksonville Center
Sat 08:09:19 PM 30.4753 -80.2558 202° Southwest 417 480 33,400 -1,500 Descending Jacksonville Center
Sat 08:10:19 PM 30.3658 -80.3167 206° Southwest 417 480 31,400 -2,200 Descending Jacksonville Center
Sat 08:11:19 PM 30.2606 -80.3772 206° Southwest 422 486 29,000 -2,350 Descending Jacksonville Center
Sat 08:12:19 PM 30.1614 -80.4350 207° Southwest 422 486 26,700 -1,650 Descending Jacksonville Center
Sat 08:13:19 PM 30.0622 -80.4928 207° Southwest 412 474 25,700 -850 Descending Jacksonville Center
Sat 08:14:19 PM 29.9631 -80.5503 207° Southwest 401 461 25,000 -750 Descending Jacksonville Center
Sat 08:15:19 PM 29.8639 -80.6078 207° Southwest 401 461 24,200 -750 Descending Jacksonville Center
Sat 08:16:19 PM 29.7647 -80.6650 207° Southwest 401 461 23,500 -750 Descending Jacksonville Center
Sat 08:17:19 PM 29.6697 -80.7197 207° Southwest 401 461 22,700 -750 Descending Jacksonville Center
Sat 08:18:19 PM 29.5767 -80.7744 207° Southwest 395 455 22,000 -750 Descending Jacksonville Center
Sat 08:19:19 PM 29.4794 -80.8267 205° Southwest 395 455 21,200 -1,050 Descending Jacksonville Center
Sat 08:20:19 PM 29.3906 -80.8786 207° Southwest 382 440 19,900 -1,750 Descending Jacksonville Center
Sat 08:21:19 PM 29.3017 -80.9306 207° Southwest 369 425 17,700 -2,100 Descending Jacksonville Center
Sat 08:22:19 PM 29.2147 -80.9772 205° Southwest 361 415 15,700 -2,850 Descending Jacksonville Center
Sat 08:23:19 PM 29.1297 -81.0267 207° Southwest 355 409 12,000 -1,750 Descending Jacksonville Center
Sat 08:24:19 PM 29.0469 -81.0708 205° Southwest 342 394 12,200 -150 Climbing Jacksonville Center
Sat 08:25:19 PM 28.9636 -81.0889 191° South 330 380 11,700 -706 Descending Jacksonville Center
Sat 08:26:18 PM 28.8667 -81.0833 177° South 307 353 10,800 -756 Descending Orlando TRACON
Sat 08:27:18 PM 28.8000 -81.1000 192° South 248 285 10,200 -947 Descending Orlando TRACON
Sat 08:28:12 PM 28.7667 -81.1667 240° Southwest 232 267 9,000 -1,684 Descending Orlando TRACON
Sat 08:29:12 PM 28.7333 -81.2167 233° Southwest 245 282 7,000 -1,700 Descending Orlando TRACON
Sat 08:30:12 PM 28.6667 -81.2500 204° Southwest 256 295 5,600 -1,400 Descending Orlando TRACON
Sat 08:31:12 PM 28.6000 -81.2667 192° South 233 268 4,200 -1,350 Descending Orlando TRACON
Sat 08:32:12 PM 28.5500 -81.2833 196° South 173 199 2,900 -1,300 Descending Orlando TRACON
Sat 08:33:12 PM 28.5000 -81.3000 196° South 152 175 1,600 -1,150 Descending Orlando TRACON
Sat 08:34:12 PM 28.4667 -81.3000 180° South 145 167 600 -1,000 Descending Orlando TRACON
Sat 08:36:00 PM 28.4294 -81.3090 180° South  Level Estimated
Sat 08:43:00 PM 28.4294 -81.3090 180° South  Level Estimated
Sat 08:44:00 PM 28.4294 -81.3090 180° South  Level Estimated
Sat 08:45:00 PM 28.4294 -81.3090 180° South  Level Estimated

Login

Don't have an account? Register now (free) for customized features, flight alerts, and more!